Somerville, Indiana
Current Conditions -  °F | °C
As of 10:54 PM on Sunday 21 Dec 2014 (Local Time) from KEVV Reporting Station
Clear Clear  
Wind Chill: 29°   Ceiling: Unl
Heat Index: 34°   Visibility: 10mi
Dew Point: 27°   Wind: 6mph
Humidity: 75%   Direction: 60°ENE
Pressure: 30.03"   Gusts: NA
Location:  38.28°N, 87.38°W
Report Text: KEVV 220454Z AUTO 06005KT 10SM CLR 01/M03 A3003 RMK AO2 SLP170 T00111028
Loading
Personal Weather Stations






























Interactive Weather Map New forecast layout! Learn more

10-Day Weather Forecast

Advertisements
Track Severe Weather on mobile